sensor_id;sensor_type;location;lat;lon;timestamp;P1;durP1;ratioP1;P2;durP2;ratioP2
13959;SDS011;7052;51.050;3.716;2023-07-13T00:00:20;9.43;;;4.05;;
13959;SDS011;7052;51.050;3.716;2023-07-13T00:02:47;10.45;;;4.47;;
13959;SDS011;7052;51.050;3.716;2023-07-13T00:05:18;11.15;;;4.32;;
13959;SDS011;7052;51.050;3.716;2023-07-13T00:07:45;8.80;;;4.18;;
13959;SDS011;7052;51.050;3.716;2023-07-13T00:10:13;13.45;;;4.55;;
13959;SDS011;7052;51.050;3.716;2023-07-13T00:12:40;9.85;;;4.63;;
13959;SDS011;7052;51.050;3.716;2023-07-13T00:15:11;9.35;;;4.00;;
13959;SDS011;7052;51.050;3.716;2023-07-13T00:17:41;10.02;;;4.13;;
13959;SDS011;7052;51.050;3.716;2023-07-13T00:20:09;12.10;;;4.70;;
13959;SDS011;7052;51.050;3.716;2023-07-13T00:22:37;9.05;;;4.20;;
13959;SDS011;7052;51.050;3.716;2023-07-13T00:25:04;10.90;;;4.30;;
13959;SDS011;7052;51.050;3.716;2023-07-13T00:27:32;7.80;;;4.00;;
13959;SDS011;7052;51.050;3.716;2023-07-13T00:29:59;12.45;;;4.25;;
13959;SDS011;7052;51.050;3.716;2023-07-13T00:32:29;10.57;;;4.03;;
13959;SDS011;7052;51.050;3.716;2023-07-13T00:34:56;12.52;;;4.53;;
13959;SDS011;7052;51.050;3.716;2023-07-13T00:37:25;13.43;;;4.38;;
13959;SDS011;7052;51.050;3.716;2023-07-13T00:39:55;14.15;;;4.32;;
13959;SDS011;7052;51.050;3.716;2023-07-13T00:42:22;15.27;;;4.43;;
13959;SDS011;7052;51.050;3.716;2023-07-13T00:45:04;12.18;;;4.38;;
13959;SDS011;7052;51.050;3.716;2023-07-13T00:47:34;11.05;;;4.05;;
13959;SDS011;7052;51.050;3.716;2023-07-13T00:50:01;12.85;;;4.32;;
13959;SDS011;7052;51.050;3.716;2023-07-13T00:52:30;14.70;;;4.88;;
13959;SDS011;7052;51.050;3.716;2023-07-13T00:54:57;12.00;;;4.63;;
13959;SDS011;7052;51.050;3.716;2023-07-13T00:57:25;9.25;;;4.00;;
13959;SDS011;7052;51.050;3.716;2023-07-13T00:59:56;14.07;;;4.10;;
13959;SDS011;7052;51.050;3.716;2023-07-13T01:02:26;13.23;;;4.45;;
13959;SDS011;7052;51.050;3.716;2023-07-13T01:04:55;14.15;;;4.78;;
13959;SDS011;7052;51.050;3.716;2023-07-13T01:07:22;11.55;;;4.45;;
13959;SDS011;7052;51.050;3.716;2023-07-13T01:09:52;12.95;;;4.65;;
13959;SDS011;7052;51.050;3.716;2023-07-13T01:12:19;10.45;;;4.00;;
13959;SDS011;7052;51.050;3.716;2023-07-13T01:14:45;13.13;;;4.45;;
13959;SDS011;7052;51.050;3.716;2023-07-13T01:17:12;15.52;;;4.43;;
13959;SDS011;7052;51.050;3.716;2023-07-13T01:19:41;9.65;;;4.30;;
13959;SDS011;7052;51.050;3.716;2023-07-13T01:22:13;14.82;;;4.45;;
13959;SDS011;7052;51.050;3.716;2023-07-13T01:24:42;10.38;;;3.92;;
13959;SDS011;7052;51.050;3.716;2023-07-13T01:27:11;13.13;;;4.30;;
13959;SDS011;7052;51.050;3.716;2023-07-13T01:29:40;13.23;;;4.05;;
13959;SDS011;7052;51.050;3.716;2023-07-13T01:32:12;14.80;;;3.92;;
13959;SDS011;7052;51.050;3.716;2023-07-13T01:34:40;15.50;;;4.07;;
13959;SDS011;7052;51.050;3.716;2023-07-13T01:37:13;9.23;;;4.10;;
13959;SDS011;7052;51.050;3.716;2023-07-13T01:39:40;12.23;;;4.43;;
13959;SDS011;7052;51.050;3.716;2023-07-13T01:42:07;13.70;;;4.63;;
13959;SDS011;7052;51.050;3.716;2023-07-13T01:44:36;13.63;;;4.68;;
13959;SDS011;7052;51.050;3.716;2023-07-13T01:47:03;15.35;;;4.55;;
13959;SDS011;7052;51.050;3.716;2023-07-13T01:49:31;11.70;;;4.63;;
13959;SDS011;7052;51.050;3.716;2023-07-13T01:51:58;11.00;;;4.55;;
13959;SDS011;7052;51.050;3.716;2023-07-13T01:54:29;15.02;;;5.20;;
13959;SDS011;7052;51.050;3.716;2023-07-13T01:56:56;14.63;;;5.25;;
13959;SDS011;7052;51.050;3.716;2023-07-13T01:59:23;12.20;;;4.70;;
13959;SDS011;7052;51.050;3.716;2023-07-13T02:01:50;14.88;;;4.93;;
13959;SDS011;7052;51.050;3.716;2023-07-13T02:04:17;13.27;;;4.85;;
13959;SDS011;7052;51.050;3.716;2023-07-13T02:06:44;12.45;;;5.30;;
13959;SDS011;7052;51.050;3.716;2023-07-13T02:09:12;12.05;;;5.18;;
13959;SDS011;7052;51.050;3.716;2023-07-13T02:11:40;14.63;;;4.93;;
13959;SDS011;7052;51.050;3.716;2023-07-13T02:14:09;15.90;;;5.15;;
13959;SDS011;7052;51.050;3.716;2023-07-13T02:16:35;16.92;;;5.47;;
13959;SDS011;7052;51.050;3.716;2023-07-13T02:19:02;16.75;;;5.00;;
13959;SDS011;7052;51.050;3.716;2023-07-13T02:21:31;12.10;;;4.95;;
13959;SDS011;7052;51.050;3.716;2023-07-13T02:23:58;20.20;;;5.13;;
13959;SDS011;7052;51.050;3.716;2023-07-13T02:26:25;14.27;;;4.88;;
13959;SDS011;7052;51.050;3.716;2023-07-13T02:28:54;12.57;;;4.90;;
13959;SDS011;7052;51.050;3.716;2023-07-13T02:31:21;15.30;;;4.95;;
13959;SDS011;7052;51.050;3.716;2023-07-13T02:33:48;13.75;;;5.13;;
13959;SDS011;7052;51.050;3.716;2023-07-13T02:36:15;14.00;;;4.90;;
13959;SDS011;7052;51.050;3.716;2023-07-13T02:38:43;13.00;;;4.93;;
13959;SDS011;7052;51.050;3.716;2023-07-13T02:41:10;15.95;;;5.18;;
13959;SDS011;7052;51.050;3.716;2023-07-13T02:43:37;13.38;;;4.53;;
13959;SDS011;7052;51.050;3.716;2023-07-13T02:46:06;13.52;;;4.53;;
13959;SDS011;7052;51.050;3.716;2023-07-13T02:48:33;17.52;;;4.70;;
13959;SDS011;7052;51.050;3.716;2023-07-13T02:51:00;15.43;;;4.82;;
13959;SDS011;7052;51.050;3.716;2023-07-13T02:53:27;19.30;;;5.07;;
13959;SDS011;7052;51.050;3.716;2023-07-13T02:55:54;11.80;;;4.85;;
13959;SDS011;7052;51.050;3.716;2023-07-13T02:58:22;14.57;;;4.97;;
13959;SDS011;7052;51.050;3.716;2023-07-13T03:00:49;12.48;;;4.63;;
13959;SDS011;7052;51.050;3.716;2023-07-13T03:03:19;15.77;;;5.20;;
13959;SDS011;7052;51.050;3.716;2023-07-13T03:05:47;13.13;;;4.55;;
13959;SDS011;7052;51.050;3.716;2023-07-13T03:08:15;12.90;;;4.93;;
13959;SDS011;7052;51.050;3.716;2023-07-13T03:10:43;15.05;;;5.00;;
13959;SDS011;7052;51.050;3.716;2023-07-13T03:13:10;11.80;;;5.10;;
13959;SDS011;7052;51.050;3.716;2023-07-13T03:15:37;16.48;;;4.93;;
13959;SDS011;7052;51.050;3.716;2023-07-13T03:18:04;13.73;;;4.95;;
13959;SDS011;7052;51.050;3.716;2023-07-13T03:20:36;13.68;;;5.30;;
13959;SDS011;7052;51.050;3.716;2023-07-13T03:23:03;15.45;;;5.20;;
13959;SDS011;7052;51.050;3.716;2023-07-13T03:25:31;14.13;;;5.13;;
13959;SDS011;7052;51.050;3.716;2023-07-13T03:27:58;15.02;;;5.25;;
13959;SDS011;7052;51.050;3.716;2023-07-13T03:30:25;14.90;;;4.65;;
13959;SDS011;7052;51.050;3.716;2023-07-13T03:32:52;16.42;;;5.30;;
13959;SDS011;7052;51.050;3.716;2023-07-13T03:35:20;18.48;;;5.65;;
13959;SDS011;7052;51.050;3.716;2023-07-13T03:37:49;16.42;;;5.45;;
13959;SDS011;7052;51.050;3.716;2023-07-13T03:40:17;17.27;;;4.93;;
13959;SDS011;7052;51.050;3.716;2023-07-13T03:42:44;14.95;;;4.97;;
13959;SDS011;7052;51.050;3.716;2023-07-13T03:45:12;15.48;;;4.65;;
13959;SDS011;7052;51.050;3.716;2023-07-13T03:47:41;10.70;;;4.63;;
13959;SDS011;7052;51.050;3.716;2023-07-13T03:50:08;13.20;;;4.30;;
13959;SDS011;7052;51.050;3.716;2023-07-13T03:52:37;15.52;;;4.60;;
13959;SDS011;7052;51.050;3.716;2023-07-13T03:55:06;16.10;;;4.72;;
13959;SDS011;7052;51.050;3.716;2023-07-13T03:57:33;14.32;;;4.60;;
13959;SDS011;7052;51.050;3.716;2023-07-13T04:00:08;15.05;;;4.85;;
13959;SDS011;7052;51.050;3.716;2023-07-13T04:02:36;14.88;;;4.78;;
13959;SDS011;7052;51.050;3.716;2023-07-13T04:05:03;14.43;;;5.10;;
13959;SDS011;7052;51.050;3.716;2023-07-13T04:07:31;14.50;;;4.82;;
13959;SDS011;7052;51.050;3.716;2023-07-13T04:09:59;12.23;;;5.22;;
13959;SDS011;7052;51.050;3.716;2023-07-13T04:12:27;15.23;;;4.85;;
13959;SDS011;7052;51.050;3.716;2023-07-13T04:14:54;18.55;;;5.00;;
13959;SDS011;7052;51.050;3.716;2023-07-13T04:17:21;16.20;;;4.90;;
13959;SDS011;7052;51.050;3.716;2023-07-13T04:19:49;14.68;;;4.47;;
13959;SDS011;7052;51.050;3.716;2023-07-13T04:22:16;18.75;;;5.13;;
13959;SDS011;7052;51.050;3.716;2023-07-13T04:24:43;15.27;;;4.80;;
13959;SDS011;7052;51.050;3.716;2023-07-13T04:27:10;13.82;;;4.68;;
13959;SDS011;7052;51.050;3.716;2023-07-13T04:29:40;18.10;;;5.38;;
13959;SDS011;7052;51.050;3.716;2023-07-13T04:32:10;15.80;;;4.60;;
13959;SDS011;7052;51.050;3.716;2023-07-13T04:34:36;13.13;;;4.50;;
13959;SDS011;7052;51.050;3.716;2023-07-13T04:37:04;15.52;;;5.30;;
13959;SDS011;7052;51.050;3.716;2023-07-13T04:39:32;17.58;;;5.07;;
13959;SDS011;7052;51.050;3.716;2023-07-13T04:41:59;14.40;;;4.90;;
13959;SDS011;7052;51.050;3.716;2023-07-13T04:44:28;18.35;;;5.75;;
13959;SDS011;7052;51.050;3.716;2023-07-13T04:46:57;15.23;;;5.60;;
13959;SDS011;7052;51.050;3.716;2023-07-13T04:49:24;13.77;;;4.43;;
13959;SDS011;7052;51.050;3.716;2023-07-13T04:51:50;19.00;;;5.32;;
13959;SDS011;7052;51.050;3.716;2023-07-13T04:54:20;12.15;;;4.50;;
13959;SDS011;7052;51.050;3.716;2023-07-13T04:56:47;19.00;;;4.88;;
13959;SDS011;7052;51.050;3.716;2023-07-13T04:59:14;16.63;;;5.03;;
13959;SDS011;7052;51.050;3.716;2023-07-13T05:01:42;12.18;;;5.15;;
13959;SDS011;7052;51.050;3.716;2023-07-13T05:04:11;17.63;;;5.47;;
13959;SDS011;7052;51.050;3.716;2023-07-13T05:06:38;15.05;;;5.38;;
13959;SDS011;7052;51.050;3.716;2023-07-13T05:09:05;14.55;;;4.88;;
13959;SDS011;7052;51.050;3.716;2023-07-13T05:11:34;11.40;;;4.60;;
13959;SDS011;7052;51.050;3.716;2023-07-13T05:14:01;21.15;;;5.43;;
13959;SDS011;7052;51.050;3.716;2023-07-13T05:16:29;20.35;;;6.03;;
13959;SDS011;7052;51.050;3.716;2023-07-13T05:18:56;11.52;;;4.65;;
13959;SDS011;7052;51.050;3.716;2023-07-13T05:21:25;10.98;;;4.43;;
13959;SDS011;7052;51.050;3.716;2023-07-13T05:23:54;19.27;;;4.93;;
13959;SDS011;7052;51.050;3.716;2023-07-13T05:26:22;10.93;;;4.60;;
13959;SDS011;7052;51.050;3.716;2023-07-13T05:28:50;15.30;;;4.55;;
13959;SDS011;7052;51.050;3.716;2023-07-13T05:31:17;12.85;;;4.72;;
13959;SDS011;7052;51.050;3.716;2023-07-13T05:33:49;14.02;;;4.70;;
13959;SDS011;7052;51.050;3.716;2023-07-13T05:36:15;14.27;;;4.40;;
13959;SDS011;7052;51.050;3.716;2023-07-13T05:38:43;20.25;;;5.55;;
13959;SDS011;7052;51.050;3.716;2023-07-13T05:41:10;21.42;;;4.97;;
13959;SDS011;7052;51.050;3.716;2023-07-13T05:43:38;13.10;;;4.43;;
13959;SDS011;7052;51.050;3.716;2023-07-13T05:46:05;15.43;;;5.40;;
13959;SDS011;7052;51.050;3.716;2023-07-13T05:48:32;14.27;;;5.28;;
13959;SDS011;7052;51.050;3.716;2023-07-13T05:51:01;13.10;;;5.13;;
13959;SDS011;7052;51.050;3.716;2023-07-13T05:53:31;15.15;;;5.28;;
13959;SDS011;7052;51.050;3.716;2023-07-13T05:55:59;12.98;;;5.40;;
13959;SDS011;7052;51.050;3.716;2023-07-13T05:58:26;12.13;;;5.10;;
13959;SDS011;7052;51.050;3.716;2023-07-13T06:00:58;14.80;;;5.20;;
13959;SDS011;7052;51.050;3.716;2023-07-13T06:03:28;12.38;;;4.82;;
13959;SDS011;7052;51.050;3.716;2023-07-13T06:05:56;15.57;;;4.90;;
13959;SDS011;7052;51.050;3.716;2023-07-13T06:08:25;11.52;;;4.57;;
13959;SDS011;7052;51.050;3.716;2023-07-13T06:10:53;15.50;;;5.88;;
13959;SDS011;7052;51.050;3.716;2023-07-13T06:13:22;16.67;;;5.10;;
13959;SDS011;7052;51.050;3.716;2023-07-13T06:15:49;15.88;;;4.85;;
13959;SDS011;7052;51.050;3.716;2023-07-13T06:18:19;11.82;;;4.40;;
13959;SDS011;7052;51.050;3.716;2023-07-13T06:20:46;13.63;;;4.38;;
13959;SDS011;7052;51.050;3.716;2023-07-13T06:23:16;12.77;;;4.70;;
13959;SDS011;7052;51.050;3.716;2023-07-13T06:25:43;12.82;;;4.93;;
13959;SDS011;7052;51.050;3.716;2023-07-13T06:28:11;16.92;;;4.97;;
13959;SDS011;7052;51.050;3.716;2023-07-13T06:30:40;10.52;;;4.50;;
13959;SDS011;7052;51.050;3.716;2023-07-13T06:33:08;11.82;;;4.80;;
13959;SDS011;7052;51.050;3.716;2023-07-13T06:35:35;12.50;;;4.80;;
13959;SDS011;7052;51.050;3.716;2023-07-13T06:38:02;11.30;;;4.70;;
13959;SDS011;7052;51.050;3.716;2023-07-13T06:40:30;14.65;;;4.72;;
13959;SDS011;7052;51.050;3.716;2023-07-13T06:42:57;14.52;;;4.60;;
13959;SDS011;7052;51.050;3.716;2023-07-13T06:45:24;13.13;;;4.68;;
13959;SDS011;7052;51.050;3.716;2023-07-13T06:47:53;15.45;;;4.78;;
13959;SDS011;7052;51.050;3.716;2023-07-13T06:50:20;16.13;;;4.68;;
13959;SDS011;7052;51.050;3.716;2023-07-13T06:52:47;14.80;;;4.80;;
13959;SDS011;7052;51.050;3.716;2023-07-13T06:55:15;8.02;;;3.85;;
13959;SDS011;7052;51.050;3.716;2023-07-13T06:57:42;13.30;;;5.05;;
13959;SDS011;7052;51.050;3.716;2023-07-13T07:00:11;17.35;;;4.97;;
13959;SDS011;7052;51.050;3.716;2023-07-13T07:02:39;13.00;;;4.72;;
13959;SDS011;7052;51.050;3.716;2023-07-13T07:05:08;8.68;;;4.28;;
13959;SDS011;7052;51.050;3.716;2023-07-13T07:07:36;11.85;;;4.35;;
13959;SDS011;7052;51.050;3.716;2023-07-13T07:10:05;18.92;;;5.05;;
13959;SDS011;7052;51.050;3.716;2023-07-13T07:12:34;9.32;;;4.15;;
13959;SDS011;7052;51.050;3.716;2023-07-13T07:15:01;11.85;;;4.03;;
13959;SDS011;7052;51.050;3.716;2023-07-13T07:17:29;14.27;;;4.25;;
13959;SDS011;7052;51.050;3.716;2023-07-13T07:19:56;11.35;;;4.07;;
13959;SDS011;7052;51.050;3.716;2023-07-13T07:22:24;13.80;;;4.60;;
13959;SDS011;7052;51.050;3.716;2023-07-13T07:24:52;10.15;;;4.20;;
13959;SDS011;7052;51.050;3.716;2023-07-13T07:27:19;14.40;;;4.78;;
13959;SDS011;7052;51.050;3.716;2023-07-13T07:29:47;13.95;;;4.85;;
13959;SDS011;7052;51.050;3.716;2023-07-13T07:32:17;11.07;;;4.30;;
13959;SDS011;7052;51.050;3.716;2023-07-13T07:34:45;13.93;;;4.40;;
13959;SDS011;7052;51.050;3.716;2023-07-13T07:37:14;11.23;;;4.10;;
13959;SDS011;7052;51.050;3.716;2023-07-13T07:39:50;11.23;;;3.85;;
13959;SDS011;7052;51.050;3.716;2023-07-13T07:42:17;7.97;;;3.53;;
13959;SDS011;7052;51.050;3.716;2023-07-13T07:44:44;7.28;;;3.42;;
13959;SDS011;7052;51.050;3.716;2023-07-13T07:47:11;7.55;;;3.38;;
13959;SDS011;7052;51.050;3.716;2023-07-13T07:49:38;8.57;;;3.97;;
13959;SDS011;7052;51.050;3.716;2023-07-13T07:52:06;7.72;;;3.40;;
13959;SDS011;7052;51.050;3.716;2023-07-13T07:54:33;9.48;;;3.65;;
13959;SDS011;7052;51.050;3.716;2023-07-13T07:57:02;10.85;;;3.97;;
13959;SDS011;7052;51.050;3.716;2023-07-13T07:59:29;10.48;;;3.67;;
13959;SDS011;7052;51.050;3.716;2023-07-13T08:01:57;11.27;;;3.70;;
13959;SDS011;7052;51.050;3.716;2023-07-13T08:04:27;8.25;;;3.70;;
13959;SDS011;7052;51.050;3.716;2023-07-13T08:06:55;11.13;;;4.43;;
13959;SDS011;7052;51.050;3.716;2023-07-13T08:09:23;13.65;;;4.85;;
13959;SDS011;7052;51.050;3.716;2023-07-13T08:11:50;7.22;;;3.25;;
13959;SDS011;7052;51.050;3.716;2023-07-13T08:14:19;8.70;;;3.53;;
13959;SDS011;7052;51.050;3.716;2023-07-13T08:16:46;9.80;;;3.40;;
13959;SDS011;7052;51.050;3.716;2023-07-13T08:19:13;7.43;;;3.67;;
13959;SDS011;7052;51.050;3.716;2023-07-13T08:21:40;12.30;;;3.75;;
13959;SDS011;7052;51.050;3.716;2023-07-13T08:24:08;7.78;;;3.35;;
13959;SDS011;7052;51.050;3.716;2023-07-13T08:26:36;11.73;;;3.90;;
13959;SDS011;7052;51.050;3.716;2023-07-13T08:29:03;8.23;;;3.88;;
13959;SDS011;7052;51.050;3.716;2023-07-13T08:31:31;9.38;;;3.38;;
13959;SDS011;7052;51.050;3.716;2023-07-13T08:33:58;8.10;;;3.88;;
13959;SDS011;7052;51.050;3.716;2023-07-13T08:36:26;12.02;;;3.65;;
13959;SDS011;7052;51.050;3.716;2023-07-13T08:38:53;7.85;;;3.50;;
13959;SDS011;7052;51.050;3.716;2023-07-13T08:41:21;11.38;;;4.18;;
13959;SDS011;7052;51.050;3.716;2023-07-13T08:43:50;8.27;;;3.20;;
13959;SDS011;7052;51.050;3.716;2023-07-13T08:46:23;7.47;;;3.40;;
13959;SDS011;7052;51.050;3.716;2023-07-13T08:48:55;7.60;;;3.33;;
13959;SDS011;7052;51.050;3.716;2023-07-13T08:51:27;10.38;;;3.58;;
13959;SDS011;7052;51.050;3.716;2023-07-13T08:54:01;6.55;;;3.03;;
13959;SDS011;7052;51.050;3.716;2023-07-13T08:56:35;9.27;;;3.20;;
13959;SDS011;7052;51.050;3.716;2023-07-13T08:59:04;6.90;;;3.17;;
13959;SDS011;7052;51.050;3.716;2023-07-13T09:01:45;10.90;;;3.53;;
13959;SDS011;7052;51.050;3.716;2023-07-13T09:04:23;13.00;;;3.83;;
13959;SDS011;7052;51.050;3.716;2023-07-13T09:06:58;6.15;;;3.28;;
13959;SDS011;7052;51.050;3.716;2023-07-13T09:09:33;8.90;;;3.35;;
13959;SDS011;7052;51.050;3.716;2023-07-13T09:12:12;9.40;;;3.45;;
13959;SDS011;7052;51.050;3.716;2023-07-13T09:14:47;7.50;;;3.25;;
13959;SDS011;7052;51.050;3.716;2023-07-13T09:17:21;8.88;;;4.15;;
13959;SDS011;7052;51.050;3.716;2023-07-13T09:19:57;7.43;;;3.05;;
13959;SDS011;7052;51.050;3.716;2023-07-13T09:22:28;7.10;;;2.85;;
13959;SDS011;7052;51.050;3.716;2023-07-13T09:25:02;6.57;;;3.20;;
13959;SDS011;7052;51.050;3.716;2023-07-13T09:27:36;8.73;;;3.72;;
13959;SDS011;7052;51.050;3.716;2023-07-13T09:30:18;5.65;;;3.10;;
13959;SDS011;7052;51.050;3.716;2023-07-13T09:32:51;9.50;;;3.45;;
13959;SDS011;7052;51.050;3.716;2023-07-13T09:35:25;8.25;;;3.33;;
13959;SDS011;7052;51.050;3.716;2023-07-13T09:37:57;8.23;;;3.17;;
13959;SDS011;7052;51.050;3.716;2023-07-13T09:40:28;8.07;;;3.30;;
13959;SDS011;7052;51.050;3.716;2023-07-13T09:43:03;8.18;;;3.10;;
13959;SDS011;7052;51.050;3.716;2023-07-13T09:45:32;10.23;;;3.20;;
13959;SDS011;7052;51.050;3.716;2023-07-13T09:48:03;9.35;;;3.65;;
13959;SDS011;7052;51.050;3.716;2023-07-13T09:50:35;5.95;;;3.10;;
13959;SDS011;7052;51.050;3.716;2023-07-13T09:53:10;6.72;;;3.10;;
13959;SDS011;7052;51.050;3.716;2023-07-13T09:55:39;12.20;;;3.58;;
13959;SDS011;7052;51.050;3.716;2023-07-13T09:58:09;9.27;;;3.58;;
13959;SDS011;7052;51.050;3.716;2023-07-13T10:00:38;4.70;;;3.15;;
13959;SDS011;7052;51.050;3.716;2023-07-13T10:03:14;5.93;;;3.10;;
13959;SDS011;7052;51.050;3.716;2023-07-13T10:05:49;5.03;;;2.83;;
13959;SDS011;7052;51.050;3.716;2023-07-13T10:08:18;3.72;;;2.47;;
13959;SDS011;7052;51.050;3.716;2023-07-13T10:10:51;5.32;;;2.70;;
13959;SDS011;7052;51.050;3.716;2023-07-13T10:13:24;6.93;;;2.75;;
13959;SDS011;7052;51.050;3.716;2023-07-13T10:15:54;6.70;;;2.60;;
13959;SDS011;7052;51.050;3.716;2023-07-13T10:18:24;6.18;;;3.38;;
13959;SDS011;7052;51.050;3.716;2023-07-13T10:20:54;10.60;;;3.38;;
13959;SDS011;7052;51.050;3.716;2023-07-13T10:23:36;6.13;;;3.38;;
13959;SDS011;7052;51.050;3.716;2023-07-13T10:26:09;5.72;;;2.92;;
13959;SDS011;7052;51.050;3.716;2023-07-13T10:28:41;6.25;;;3.25;;
13959;SDS011;7052;51.050;3.716;2023-07-13T10:31:13;7.78;;;3.35;;
13959;SDS011;7052;51.050;3.716;2023-07-13T10:33:43;7.10;;;3.03;;
13959;SDS011;7052;51.050;3.716;2023-07-13T10:36:14;4.93;;;2.70;;
13959;SDS011;7052;51.050;3.716;2023-07-13T10:38:55;8.63;;;2.90;;
13959;SDS011;7052;51.050;3.716;2023-07-13T10:41:27;5.82;;;2.88;;
13959;SDS011;7052;51.050;3.716;2023-07-13T10:43:57;6.13;;;2.50;;
13959;SDS011;7052;51.050;3.716;2023-07-13T10:46:29;10.27;;;3.33;;
13959;SDS011;7052;51.050;3.716;2023-07-13T10:48:57;8.55;;;3.30;;
13959;SDS011;7052;51.050;3.716;2023-07-13T10:51:31;6.07;;;2.92;;
13959;SDS011;7052;51.050;3.716;2023-07-13T10:54:11;12.52;;;5.05;;
13959;SDS011;7052;51.050;3.716;2023-07-13T10:56:42;9.90;;;4.53;;
13959;SDS011;7052;51.050;3.716;2023-07-13T10:59:12;7.93;;;4.25;;
13959;SDS011;7052;51.050;3.716;2023-07-13T11:01:48;5.22;;;3.25;;
13959;SDS011;7052;51.050;3.716;2023-07-13T11:04:20;5.07;;;3.17;;
13959;SDS011;7052;51.050;3.716;2023-07-13T11:06:52;6.22;;;3.50;;
13959;SDS011;7052;51.050;3.716;2023-07-13T11:09:31;5.35;;;3.45;;
13959;SDS011;7052;51.050;3.716;2023-07-13T11:12:02;5.90;;;3.67;;
13959;SDS011;7052;51.050;3.716;2023-07-13T11:14:42;9.25;;;5.97;;
13959;SDS011;7052;51.050;3.716;2023-07-13T11:20:30;7.43;;;3.35;;
13959;SDS011;7052;51.050;3.716;2023-07-13T11:25:59;4.47;;;3.28;;
13959;SDS011;7052;51.050;3.716;2023-07-13T11:28:29;6.80;;;3.30;;
13959;SDS011;7052;51.050;3.716;2023-07-13T11:31:01;5.82;;;3.47;;
13959;SDS011;7052;51.050;3.716;2023-07-13T11:36:29;4.10;;;3.15;;
13959;SDS011;7052;51.050;3.716;2023-07-13T11:39:14;7.43;;;3.80;;
13959;SDS011;7052;51.050;3.716;2023-07-13T11:41:49;5.65;;;3.20;;
13959;SDS011;7052;51.050;3.716;2023-07-13T11:44:19;5.93;;;3.45;;
13959;SDS011;7052;51.050;3.716;2023-07-13T11:46:50;7.72;;;3.45;;
13959;SDS011;7052;51.050;3.716;2023-07-13T11:49:19;6.38;;;3.83;;
13959;SDS011;7052;51.050;3.716;2023-07-13T11:51:48;8.25;;;3.50;;
13959;SDS011;7052;51.050;3.716;2023-07-13T11:54:27;6.13;;;3.53;;
13959;SDS011;7052;51.050;3.716;2023-07-13T11:56:55;7.82;;;3.95;;
13959;SDS011;7052;51.050;3.716;2023-07-13T11:59:26;11.55;;;4.20;;
13959;SDS011;7052;51.050;3.716;2023-07-13T12:01:54;7.70;;;3.40;;
13959;SDS011;7052;51.050;3.716;2023-07-13T12:04:23;6.97;;;3.70;;
13959;SDS011;7052;51.050;3.716;2023-07-13T12:06:55;6.43;;;3.63;;
13959;SDS011;7052;51.050;3.716;2023-07-13T12:09:25;9.43;;;4.05;;
13959;SDS011;7052;51.050;3.716;2023-07-13T12:12:01;5.07;;;3.70;;
13959;SDS011;7052;51.050;3.716;2023-07-13T12:14:29;9.63;;;3.85;;
13959;SDS011;7052;51.050;3.716;2023-07-13T12:17:09;5.80;;;3.50;;
13959;SDS011;7052;51.050;3.716;2023-07-13T12:19:44;6.22;;;3.28;;
13959;SDS011;7052;51.050;3.716;2023-07-13T12:22:12;6.20;;;3.10;;
13959;SDS011;7052;51.050;3.716;2023-07-13T12:24:43;4.90;;;2.75;;
13959;SDS011;7052;51.050;3.716;2023-07-13T12:27:18;7.38;;;4.57;;
13959;SDS011;7052;51.050;3.716;2023-07-13T12:29:52;5.72;;;3.30;;
13959;SDS011;7052;51.050;3.716;2023-07-13T12:32:23;4.30;;;3.35;;
13959;SDS011;7052;51.050;3.716;2023-07-13T12:34:52;7.03;;;3.58;;
13959;SDS011;7052;51.050;3.716;2023-07-13T12:37:21;6.45;;;3.20;;
13959;SDS011;7052;51.050;3.716;2023-07-13T12:39:49;6.90;;;3.55;;
13959;SDS011;7052;51.050;3.716;2023-07-13T12:42:19;8.02;;;3.55;;
13959;SDS011;7052;51.050;3.716;2023-07-13T12:44:52;8.90;;;4.10;;
13959;SDS011;7052;51.050;3.716;2023-07-13T12:47:22;5.13;;;3.17;;
13959;SDS011;7052;51.050;3.716;2023-07-13T12:49:50;11.57;;;3.28;;
13959;SDS011;7052;51.050;3.716;2023-07-13T12:52:21;6.38;;;3.25;;
13959;SDS011;7052;51.050;3.716;2023-07-13T12:55:04;5.65;;;2.95;;
13959;SDS011;7052;51.050;3.716;2023-07-13T12:57:38;7.03;;;4.57;;
13959;SDS011;7052;51.050;3.716;2023-07-13T13:00:18;11.65;;;4.88;;
13959;SDS011;7052;51.050;3.716;2023-07-13T13:02:52;5.32;;;3.35;;
13959;SDS011;7052;51.050;3.716;2023-07-13T13:05:30;9.63;;;5.43;;
13959;SDS011;7052;51.050;3.716;2023-07-13T13:07:58;7.35;;;3.42;;
13959;SDS011;7052;51.050;3.716;2023-07-13T13:10:30;7.50;;;3.63;;
13959;SDS011;7052;51.050;3.716;2023-07-13T13:12:57;5.43;;;3.13;;
13959;SDS011;7052;51.050;3.716;2023-07-13T13:15:28;4.65;;;3.00;;
13959;SDS011;7052;51.050;3.716;2023-07-13T13:17:56;6.65;;;2.90;;
13959;SDS011;7052;51.050;3.716;2023-07-13T13:20:26;7.45;;;2.63;;
13959;SDS011;7052;51.050;3.716;2023-07-13T13:22:53;5.32;;;2.58;;
13959;SDS011;7052;51.050;3.716;2023-07-13T13:25:23;2.85;;;2.25;;
13959;SDS011;7052;51.050;3.716;2023-07-13T13:27:53;4.38;;;2.50;;
13959;SDS011;7052;51.050;3.716;2023-07-13T13:30:20;8.50;;;3.35;;
13959;SDS011;7052;51.050;3.716;2023-07-13T13:32:47;4.63;;;2.25;;
13959;SDS011;7052;51.050;3.716;2023-07-13T13:35:15;3.20;;;2.35;;
13959;SDS011;7052;51.050;3.716;2023-07-13T13:37:47;4.82;;;2.33;;
13959;SDS011;7052;51.050;3.716;2023-07-13T13:40:17;5.72;;;2.47;;
13959;SDS011;7052;51.050;3.716;2023-07-13T13:42:45;3.83;;;2.10;;
13959;SDS011;7052;51.050;3.716;2023-07-13T13:45:14;3.20;;;2.20;;
13959;SDS011;7052;51.050;3.716;2023-07-13T13:47:43;3.65;;;2.15;;
13959;SDS011;7052;51.050;3.716;2023-07-13T13:50:12;14.07;;;3.65;;
13959;SDS011;7052;51.050;3.716;2023-07-13T13:52:40;2.63;;;2.15;;
13959;SDS011;7052;51.050;3.716;2023-07-13T13:55:13;8.60;;;4.85;;
13959;SDS011;7052;51.050;3.716;2023-07-13T13:57:40;2.80;;;2.15;;
13959;SDS011;7052;51.050;3.716;2023-07-13T14:00:08;3.90;;;2.25;;
13959;SDS011;7052;51.050;3.716;2023-07-13T14:02:45;4.88;;;2.33;;
13959;SDS011;7052;51.050;3.716;2023-07-13T14:05:15;3.55;;;2.30;;
13959;SDS011;7052;51.050;3.716;2023-07-13T14:07:52;2.78;;;2.35;;
13959;SDS011;7052;51.050;3.716;2023-07-13T14:10:19;6.05;;;2.45;;
13959;SDS011;7052;51.050;3.716;2023-07-13T14:12:50;3.95;;;2.47;;
13959;SDS011;7052;51.050;3.716;2023-07-13T14:15:20;7.65;;;2.58;;
13959;SDS011;7052;51.050;3.716;2023-07-13T14:17:51;7.18;;;2.60;;
13959;SDS011;7052;51.050;3.716;2023-07-13T14:20:20;2.92;;;2.22;;
13959;SDS011;7052;51.050;3.716;2023-07-13T14:22:49;2.92;;;2.05;;
13959;SDS011;7052;51.050;3.716;2023-07-13T14:25:17;3.65;;;2.40;;
13959;SDS011;7052;51.050;3.716;2023-07-13T14:27:48;2.45;;;2.00;;
13959;SDS011;7052;51.050;3.716;2023-07-13T14:30:21;2.60;;;2.17;;
13959;SDS011;7052;51.050;3.716;2023-07-13T14:32:51;5.03;;;2.30;;
13959;SDS011;7052;51.050;3.716;2023-07-13T14:35:18;4.45;;;2.38;;
13959;SDS011;7052;51.050;3.716;2023-07-13T14:37:48;3.17;;;2.28;;
13959;SDS011;7052;51.050;3.716;2023-07-13T14:40:16;5.65;;;2.40;;
13959;SDS011;7052;51.050;3.716;2023-07-13T14:42:45;4.18;;;2.35;;
13959;SDS011;7052;51.050;3.716;2023-07-13T14:45:13;4.07;;;2.17;;
13959;SDS011;7052;51.050;3.716;2023-07-13T14:47:42;2.97;;;2.20;;
13959;SDS011;7052;51.050;3.716;2023-07-13T14:50:17;4.30;;;2.13;;
13959;SDS011;7052;51.050;3.716;2023-07-13T14:52:47;3.53;;;2.30;;
13959;SDS011;7052;51.050;3.716;2023-07-13T14:55:15;5.43;;;2.60;;
13959;SDS011;7052;51.050;3.716;2023-07-13T14:57:43;4.05;;;2.47;;
13959;SDS011;7052;51.050;3.716;2023-07-13T15:00:14;2.38;;;2.17;;
13959;SDS011;7052;51.050;3.716;2023-07-13T15:02:42;3.25;;;2.00;;
13959;SDS011;7052;51.050;3.716;2023-07-13T15:05:17;3.45;;;2.05;;
13959;SDS011;7052;51.050;3.716;2023-07-13T15:07:45;3.65;;;2.10;;
13959;SDS011;7052;51.050;3.716;2023-07-13T15:10:14;4.72;;;2.45;;
13959;SDS011;7052;51.050;3.716;2023-07-13T15:12:44;4.35;;;2.40;;
13959;SDS011;7052;51.050;3.716;2023-07-13T15:15:12;5.32;;;2.30;;